createdAt,value
2016-12-27T00:00:25.140Z,1016.42
2016-12-27T00:01:25.159Z,1016.39
2016-12-27T00:02:25.177Z,1016.37
2016-12-27T00:03:25.194Z,1016.52
2016-12-27T00:04:25.211Z,1016.32
2016-12-27T00:05:25.230Z,1016.31
2016-12-27T00:06:25.247Z,1016.4
2016-12-27T00:07:25.264Z,1016.46
2016-12-27T00:08:25.282Z,1016.42
2016-12-27T00:09:25.300Z,1016.46
2016-12-27T00:10:25.318Z,1016.37
2016-12-27T00:11:25.335Z,1016.56
2016-12-27T00:12:25.353Z,1016.44
2016-12-27T00:13:25.421Z,1016.46
2016-12-27T00:14:25.388Z,1016.51
2016-12-27T00:16:25.424Z,1016.45
2016-12-27T00:17:25.442Z,1016.72
2016-12-27T00:18:25.459Z,1016.46
2016-12-27T00:19:25.477Z,1016.58
2016-12-27T00:20:25.495Z,1016.64
2016-12-27T00:21:25.513Z,1016.56
2016-12-27T00:22:25.529Z,1016.66
2016-12-27T00:23:25.548Z,1016.54
2016-12-27T00:24:25.566Z,1016.57
2016-12-27T00:25:25.582Z,1016.43
2016-12-27T00:26:25.600Z,1016.31
2016-12-27T00:27:25.618Z,1016.54
2016-12-27T00:28:25.636Z,1016.6
2016-12-27T00:29:25.662Z,1016.61
2016-12-27T00:30:25.671Z,1016.66
2016-12-27T00:32:25.707Z,1016.7
2016-12-27T00:33:25.723Z,1016.64
2016-12-27T00:34:25.741Z,1016.85
2016-12-27T00:35:25.759Z,1016.71
2016-12-27T00:36:25.776Z,1016.87
2016-12-27T00:37:25.794Z,1016.62
2016-12-27T00:38:25.812Z,1016.83
2016-12-27T00:39:25.830Z,1016.81
2016-12-27T00:40:25.847Z,1016.83
2016-12-27T00:41:25.865Z,1016.77
2016-12-27T00:42:25.883Z,1016.78
2016-12-27T00:43:25.900Z,1016.93
2016-12-27T00:44:25.918Z,1016.84
2016-12-27T00:45:25.936Z,1016.97
2016-12-27T00:46:25.954Z,1016.88
2016-12-27T00:48:25.989Z,1016.92
2016-12-27T00:49:26.007Z,1016.63
2016-12-27T00:50:26.025Z,1016.69
2016-12-27T00:51:26.042Z,1016.92
2016-12-27T00:52:26.060Z,1016.81
2016-12-27T00:53:26.078Z,1016.78
2016-12-27T00:54:26.096Z,1016.84
2016-12-27T00:55:26.113Z,1016.93
2016-12-27T00:56:26.131Z,1016.97
2016-12-27T00:57:26.149Z,1017.18
2016-12-27T00:58:26.166Z,1016.63
2016-12-27T00:59:26.184Z,1016.7
2016-12-27T01:00:26.202Z,1016.7
2016-12-27T01:01:26.220Z,1016.8
2016-12-27T01:02:26.237Z,1016.64
2016-12-27T01:04:26.273Z,1016.74
2016-12-27T01:05:26.291Z,1016.56
2016-12-27T01:06:26.308Z,1016.55
2016-12-27T01:07:26.327Z,1016.71
2016-12-27T01:08:26.344Z,1016.6
2016-12-27T01:09:26.361Z,1016.66
2016-12-27T01:10:26.380Z,1016.73
2016-12-27T01:11:26.397Z,1016.72
2016-12-27T01:12:26.415Z,1016.6
2016-12-27T01:13:26.432Z,1016.66
2016-12-27T01:14:26.450Z,1016.54
2016-12-27T01:15:26.468Z,1016.71
2016-12-27T01:16:26.487Z,1016.69
2016-12-27T01:17:26.504Z,1016.71
2016-12-27T01:19:26.540Z,1016.78
2016-12-27T01:20:26.557Z,1016.76
2016-12-27T01:21:26.575Z,1016.89
2016-12-27T01:22:26.593Z,1016.76
2016-12-27T01:23:26.611Z,1016.8
2016-12-27T01:24:26.629Z,1016.71
2016-12-27T01:25:26.647Z,1016.7
2016-12-27T01:26:26.665Z,1016.84
2016-12-27T01:27:26.684Z,1016.73
2016-12-27T01:28:26.699Z,1016.69
2016-12-27T01:29:26.718Z,1016.69
2016-12-27T01:30:26.739Z,1016.81
2016-12-27T01:31:26.755Z,1016.66
2016-12-27T01:32:26.771Z,1016.74
2016-12-27T01:33:26.789Z,1016.6
2016-12-27T01:34:26.807Z,1016.53
2016-12-27T01:35:26.824Z,1016.66
2016-12-27T01:36:26.842Z,1016.87
2016-12-27T01:37:26.860Z,1016.68
2016-12-27T01:38:26.877Z,1016.54
2016-12-27T01:39:26.895Z,1016.64
2016-12-27T01:40:26.914Z,1016.5
2016-12-27T01:41:26.932Z,1016.63
2016-12-27T01:42:26.954Z,1016.38
2016-12-27T01:43:26.967Z,1016.48
2016-12-27T01:44:26.985Z,1016.48
2016-12-27T01:45:27.003Z,1016.56
2016-12-27T01:46:27.020Z,1016.41
2016-12-27T01:47:27.039Z,1016.4
2016-12-27T01:48:27.057Z,1016.43
2016-12-27T01:49:27.074Z,1016.35
2016-12-27T01:51:27.110Z,1016.27
2016-12-27T01:52:27.128Z,1016.21
2016-12-27T01:53:27.145Z,1015.95
2016-12-27T01:54:27.163Z,1016.01
2016-12-27T01:55:27.182Z,1016.21
2016-12-27T01:56:27.200Z,1016.09
2016-12-27T01:57:27.217Z,1015.94
2016-12-27T01:58:27.235Z,1015.99
2016-12-27T01:59:27.253Z,1016.04
2016-12-27T02:00:27.270Z,1015.92
2016-12-27T02:01:27.308Z,1015.87
2016-12-27T02:02:27.308Z,1016
2016-12-27T02:03:27.325Z,1015.85
2016-12-27T02:04:27.342Z,1015.68
2016-12-27T02:05:27.360Z,1016.08
2016-12-27T02:07:27.396Z,1015.53
2016-12-27T02:08:27.463Z,1015.95
2016-12-27T02:09:27.431Z,1015.83
2016-12-27T02:10:27.450Z,1015.81
2016-12-27T02:11:27.466Z,1015.94
2016-12-27T02:12:27.484Z,1015.8
2016-12-27T02:13:27.502Z,1015.7
2016-12-27T02:14:27.520Z,1015.92
2016-12-27T02:15:27.537Z,1015.72
2016-12-27T02:16:27.555Z,1015.73
2016-12-27T02:17:27.573Z,1015.79
2016-12-27T02:18:27.591Z,1015.99
2016-12-27T02:19:27.608Z,1015.91
2016-12-27T02:20:27.627Z,1015.83
2016-12-27T02:21:27.645Z,1015.89
2016-12-27T02:23:27.679Z,1015.89
2016-12-27T02:24:27.697Z,1015.89
2016-12-27T02:25:28.016Z,1015.89
2016-12-27T02:26:27.732Z,1015.83
2016-12-27T02:27:27.750Z,1015.88
2016-12-27T02:28:27.768Z,1015.74
2016-12-27T02:29:27.787Z,1015.77
2016-12-27T02:30:27.803Z,1015.92
2016-12-27T02:31:27.822Z,1015.88
2016-12-27T02:32:27.840Z,1015.92
2016-12-27T02:33:27.857Z,1015.8
2016-12-27T02:34:27.875Z,1015.71
2016-12-27T02:35:27.893Z,1015.85
2016-12-27T02:36:27.911Z,1015.75
2016-12-27T02:37:27.928Z,1016.03
2016-12-27T02:39:27.964Z,1015.68
2016-12-27T02:40:27.982Z,1016.05
2016-12-27T02:41:27.999Z,1015.68
2016-12-27T02:42:28.017Z,1015.62
2016-12-27T02:43:28.036Z,1015.55
2016-12-27T02:44:28.053Z,1015.65
2016-12-27T02:45:28.070Z,1015.64
2016-12-27T02:46:28.088Z,1015.65
2016-12-27T02:47:28.107Z,1015.74
2016-12-27T02:48:28.124Z,1015.74
2016-12-27T02:49:28.142Z,1015.69
2016-12-27T02:50:28.159Z,1015.73
2016-12-27T02:51:28.178Z,1015.76
2016-12-27T02:52:28.195Z,1015.57
2016-12-27T02:54:28.232Z,1015.49
2016-12-27T02:55:28.249Z,1015.48
2016-12-27T02:56:28.267Z,1015.53
2016-12-27T02:57:28.285Z,1015.49
2016-12-27T02:58:28.303Z,1015.94
2016-12-27T02:59:28.320Z,1015.68
2016-12-27T03:00:28.338Z,1015.8
2016-12-27T03:01:28.358Z,1015.76
2016-12-27T03:02:28.372Z,1015.5
2016-12-27T03:03:28.391Z,1015.45
2016-12-27T03:04:28.410Z,1015.51
2016-12-27T03:05:28.427Z,1015.54
2016-12-27T03:06:28.444Z,1015.45
2016-12-27T03:07:28.462Z,1015.4
2016-12-27T03:08:28.480Z,1015.4
2016-12-27T03:09:28.498Z,1015.58
2016-12-27T03:10:28.515Z,1015.7
2016-12-27T03:11:28.533Z,1015.41
2016-12-27T03:12:28.551Z,1015.62
2016-12-27T03:13:28.567Z,1015.52
2016-12-27T03:14:28.586Z,1015.58
2016-12-27T03:15:28.604Z,1015.61
2016-12-27T03:16:28.622Z,1015.6
2016-12-27T03:17:28.639Z,1015.58
2016-12-27T03:18:28.657Z,1015.64
2016-12-27T03:19:28.675Z,1015.65
2016-12-27T03:20:28.693Z,1015.7
2016-12-27T03:21:28.711Z,1015.81
2016-12-27T03:22:28.728Z,1015.63
2016-12-27T03:23:28.746Z,1015.73
2016-12-27T03:24:28.764Z,1015.52
2016-12-27T03:26:28.799Z,1015.63
2016-12-27T03:27:28.818Z,1015.48
2016-12-27T03:28:28.835Z,1015.5
2016-12-27T03:29:28.853Z,1015.46
2016-12-27T03:30:28.871Z,1015.55
2016-12-27T03:31:28.889Z,1015.56
2016-12-27T03:32:28.906Z,1015.39
2016-12-27T03:33:28.924Z,1015.36
2016-12-27T03:34:28.943Z,1015.74
2016-12-27T03:35:28.960Z,1015.51
2016-12-27T03:36:28.978Z,1015.58
2016-12-27T03:37:28.996Z,1015.48
2016-12-27T03:38:29.014Z,1015.6
2016-12-27T03:39:29.031Z,1015.42
2016-12-27T03:40:29.050Z,1015.49
2016-12-27T03:42:29.086Z,1015.18
2016-12-27T03:43:29.103Z,1015.15
2016-12-27T03:44:29.121Z,1015.34
2016-12-27T03:45:29.139Z,1015.46
2016-12-27T03:46:29.156Z,1015.33
2016-12-27T03:47:29.174Z,1015.63
2016-12-27T03:48:29.192Z,1015.52
2016-12-27T03:49:29.210Z,1015.34
2016-12-27T03:50:29.228Z,1015.76
2016-12-27T03:51:29.246Z,1015.48
2016-12-27T03:52:29.264Z,1015.58
2016-12-27T03:53:29.282Z,1015.47
2016-12-27T03:54:29.299Z,1015.57
2016-12-27T03:55:29.317Z,1015.31
2016-12-27T03:56:29.337Z,1015.51
2016-12-27T03:58:29.371Z,1015.44
2016-12-27T03:59:29.389Z,1015.33
2016-12-27T04:00:29.407Z,1015.36
2016-12-27T04:01:29.424Z,1015.32
2016-12-27T04:02:29.442Z,1015.35
2016-12-27T04:03:29.463Z,1015.25
2016-12-27T04:04:29.479Z,1015.37
2016-12-27T04:05:29.496Z,1015.41
2016-12-27T04:06:29.515Z,1015.31
2016-12-27T04:07:29.533Z,1015.14
2016-12-27T04:08:29.550Z,1015.41
2016-12-27T04:09:29.568Z,1015.96
2016-12-27T04:10:29.586Z,1015.64
2016-12-27T04:11:29.604Z,1015.51
2016-12-27T04:12:29.622Z,1015.62
2016-12-27T04:14:29.659Z,1015.38
2016-12-27T04:15:29.677Z,1015.7
2016-12-27T04:16:29.696Z,1015.66
2016-12-27T04:17:29.713Z,1015.7
2016-12-27T04:18:29.732Z,1015.66
2016-12-27T04:19:29.749Z,1015.66
2016-12-27T04:20:29.768Z,1015.76
2016-12-27T04:21:29.786Z,1015.61
2016-12-27T04:22:29.805Z,1015.81
2016-12-27T04:23:29.822Z,1015.72
2016-12-27T04:24:29.840Z,1015.67
2016-12-27T04:25:29.859Z,1015.79
2016-12-27T04:26:29.877Z,1015.77
2016-12-27T04:27:29.896Z,1015.73
2016-12-27T04:29:29.933Z,1015.8
2016-12-27T04:30:29.951Z,1015.51
2016-12-27T04:31:29.969Z,1015.75
2016-12-27T04:32:29.988Z,1015.86
2016-12-27T04:33:30.006Z,1015.98
2016-12-27T04:34:30.024Z,1015.89
2016-12-27T04:35:30.042Z,1016.04
2016-12-27T04:36:30.063Z,1015.73
2016-12-27T04:37:30.078Z,1016.08
2016-12-27T04:38:30.096Z,1015.94
2016-12-27T04:39:30.115Z,1015.98
2016-12-27T04:40:30.133Z,1015.93
2016-12-27T04:41:30.151Z,1015.92
2016-12-27T04:42:30.170Z,1016.02
2016-12-27T04:43:30.188Z,1016.01
2016-12-27T04:44:30.206Z,1015.99
2016-12-27T04:45:30.224Z,1016.26
2016-12-27T04:46:30.243Z,1016
2016-12-27T04:47:30.261Z,1016.05
2016-12-27T04:48:30.278Z,1016.16
2016-12-27T04:49:30.297Z,1016.08
2016-12-27T04:50:30.315Z,1016.19
2016-12-27T04:51:30.334Z,1016.27
2016-12-27T04:52:30.351Z,1016.02
2016-12-27T04:53:30.369Z,1016.13
2016-12-27T04:54:30.388Z,1016.27
2016-12-27T04:55:30.406Z,1016.02
2016-12-27T04:56:30.424Z,1015.92
2016-12-27T04:57:30.442Z,1015.75
2016-12-27T04:58:30.460Z,1015.77
2016-12-27T04:59:30.478Z,1016.16
2016-12-27T05:01:30.515Z,1015.98
2016-12-27T05:02:30.534Z,1016.03
2016-12-27T05:03:30.551Z,1015.93
2016-12-27T05:04:30.569Z,1016.01
2016-12-27T05:05:30.588Z,1015.79
2016-12-27T05:06:30.606Z,1015.84
2016-12-27T05:07:30.623Z,1015.88
2016-12-27T05:08:30.642Z,1015.86
2016-12-27T05:09:30.660Z,1016
2016-12-27T05:10:30.681Z,1015.91
2016-12-27T05:11:30.696Z,1015.98
2016-12-27T05:12:30.714Z,1015.88
2016-12-27T05:13:30.733Z,1016.12
2016-12-27T05:14:30.750Z,1016.01
2016-12-27T05:15:30.768Z,1015.83
2016-12-27T05:17:30.806Z,1016.11
2016-12-27T05:18:30.823Z,1016.13
2016-12-27T05:19:30.841Z,1016.24
2016-12-27T05:20:30.865Z,1016.19
2016-12-27T05:21:30.877Z,1016.14
2016-12-27T05:22:30.896Z,1016.1
2016-12-27T05:23:30.914Z,1016.35
2016-12-27T05:24:30.933Z,1016.4
2016-12-27T05:25:30.950Z,1016.29
2016-12-27T05:26:30.968Z,1016.28
2016-12-27T05:27:30.987Z,1016.25
2016-12-27T05:28:31.006Z,1016.16
2016-12-27T05:29:31.023Z,1016.21
2016-12-27T05:30:31.041Z,1015.98
2016-12-27T05:31:31.060Z,1016.27
2016-12-27T05:33:31.096Z,1016.09
2016-12-27T05:34:31.114Z,1016.16
2016-12-27T05:35:31.133Z,1016.2
2016-12-27T05:36:31.150Z,1016.09
2016-12-27T05:37:31.169Z,1016.02
2016-12-27T05:38:31.187Z,1016.19
2016-12-27T05:39:31.206Z,1016.27
2016-12-27T05:40:31.223Z,1016.22
2016-12-27T05:41:31.242Z,1016.11
2016-12-27T05:42:31.260Z,1016.24
2016-12-27T05:43:31.278Z,1016.22
2016-12-27T05:44:31.296Z,1016.23
2016-12-27T05:45:31.314Z,1016.24
2016-12-27T05:46:31.333Z,1016.25
2016-12-27T05:47:31.350Z,1016.26
2016-12-27T05:49:31.387Z,1016.17
2016-12-27T05:50:31.407Z,1016.22
2016-12-27T05:51:31.423Z,1016.27
2016-12-27T05:52:31.442Z,1016.2
2016-12-27T05:53:31.462Z,1016.33
2016-12-27T05:54:31.478Z,1016.24
2016-12-27T05:55:31.496Z,1016.37
2016-12-27T05:56:31.515Z,1016.39
2016-12-27T05:57:31.533Z,1016.33
2016-12-27T05:58:31.551Z,1016.42
2016-12-27T05:59:31.569Z,1016.26
2016-12-27T06:00:31.588Z,1016.36
2016-12-27T06:01:31.606Z,1016.46
2016-12-27T06:02:31.625Z,1016.46
2016-12-27T06:04:31.665Z,1016.4
2016-12-27T06:05:31.680Z,1016.63
2016-12-27T06:06:31.699Z,1016.47
2016-12-27T06:07:31.718Z,1016.53
2016-12-27T06:08:31.736Z,1016.48
2016-12-27T06:09:31.754Z,1016.49
2016-12-27T06:10:31.772Z,1016.48
2016-12-27T06:11:31.791Z,1016.55
2016-12-27T06:12:31.809Z,1016.58
2016-12-27T06:13:31.828Z,1016.59
2016-12-27T06:14:31.846Z,1016.64
2016-12-27T06:15:31.865Z,1016.53
2016-12-27T06:16:31.882Z,1016.57
2016-12-27T06:17:31.901Z,1016.73
2016-12-27T06:18:31.919Z,1016.67
2016-12-27T06:19:31.938Z,1016.84
2016-12-27T06:20:31.956Z,1017
2016-12-27T06:21:31.974Z,1016.9
2016-12-27T06:22:31.993Z,1016.98
2016-12-27T06:23:32.010Z,1016.88
2016-12-27T06:24:32.029Z,1016.94
2016-12-27T06:25:32.048Z,1017.13
2016-12-27T06:26:32.066Z,1017.03
2016-12-27T06:27:32.084Z,1016.89
2016-12-27T06:28:32.102Z,1016.92
2016-12-27T06:29:32.121Z,1016.92
2016-12-27T06:30:32.139Z,1017.11
2016-12-27T06:31:32.157Z,1016.94
2016-12-27T06:32:32.175Z,1016.92
2016-12-27T06:33:32.193Z,1017.07
2016-12-27T06:34:32.211Z,1017.09
2016-12-27T06:36:32.248Z,1017.05
2016-12-27T06:37:32.266Z,1017.11
2016-12-27T06:38:32.284Z,1017.13
2016-12-27T06:39:32.302Z,1017.15
2016-12-27T06:40:32.320Z,1017.05
2016-12-27T06:41:32.339Z,1017.04
2016-12-27T06:42:32.357Z,1017.24
2016-12-27T06:43:32.375Z,1017.15
2016-12-27T06:44:32.393Z,1017.24
2016-12-27T06:45:32.411Z,1017.22
2016-12-27T06:46:32.430Z,1017.1
2016-12-27T06:47:32.448Z,1017.14
2016-12-27T06:48:32.466Z,1017.21
2016-12-27T06:49:32.484Z,1017.09
2016-12-27T06:50:32.504Z,1017.06
2016-12-27T06:52:32.539Z,1017.03
2016-12-27T06:53:32.556Z,1017.04
2016-12-27T06:54:32.579Z,1017.12
2016-12-27T06:55:32.593Z,1017.08
2016-12-27T06:56:32.612Z,1017.1
2016-12-27T06:57:32.628Z,1017.08
2016-12-27T06:58:32.647Z,1017.19
2016-12-27T06:59:32.666Z,1017.17
2016-12-27T07:00:32.683Z,1017.25
2016-12-27T07:01:32.701Z,1017.31
2016-12-27T07:02:32.719Z,1017.26
2016-12-27T07:03:32.738Z,1017.35
2016-12-27T07:04:32.755Z,1017.23
2016-12-27T07:05:32.774Z,1017.25
2016-12-27T07:06:32.792Z,1017.03
2016-12-27T07:08:32.828Z,1017.14
2016-12-27T07:09:32.847Z,1017.36
2016-12-27T07:10:32.865Z,1017.3
2016-12-27T07:11:32.883Z,1017.33
2016-12-27T07:12:32.901Z,1017.39
2016-12-27T07:13:32.922Z,1017.38
2016-12-27T07:14:32.937Z,1017.4
2016-12-27T07:15:32.955Z,1017.53
2016-12-27T07:16:32.973Z,1017.64
2016-12-27T07:17:32.991Z,1017.6
2016-12-27T07:18:33.009Z,1017.54
2016-12-27T07:19:33.027Z,1017.61
2016-12-27T07:20:33.045Z,1017.63
2016-12-27T07:21:33.064Z,1017.84
2016-12-27T07:22:33.083Z,1017.71
2016-12-27T07:24:33.118Z,1017.78
2016-12-27T07:25:33.138Z,1017.69
2016-12-27T07:26:33.154Z,1017.7
2016-12-27T07:27:33.173Z,1017.56
2016-12-27T07:28:33.194Z,1017.69
2016-12-27T07:29:33.208Z,1017.72
2016-12-27T07:30:33.227Z,1017.66
2016-12-27T07:31:33.245Z,1017.54
2016-12-27T07:32:33.263Z,1017.46
2016-12-27T07:33:33.281Z,1017.62
2016-12-27T07:34:33.299Z,1017.69
2016-12-27T07:35:33.317Z,1017.57
2016-12-27T07:36:33.337Z,1017.62
2016-12-27T07:37:33.354Z,1017.89
2016-12-27T07:39:33.391Z,1017.53
2016-12-27T07:40:33.409Z,1017.65
2016-12-27T07:41:33.427Z,1017.51
2016-12-27T07:42:33.445Z,1017.5
2016-12-27T07:43:33.464Z,1017.77
2016-12-27T07:44:33.481Z,1017.53
2016-12-27T07:45:33.501Z,1017.71
2016-12-27T07:46:33.518Z,1017.59
2016-12-27T07:47:33.535Z,1017.62
2016-12-27T07:48:33.555Z,1017.74
2016-12-27T07:49:33.572Z,1017.81
2016-12-27T07:50:33.591Z,1017.77
2016-12-27T07:51:33.608Z,1017.77
2016-12-27T07:52:33.627Z,1017.67
2016-12-27T07:53:33.645Z,1017.6
2016-12-27T07:54:33.664Z,1017.66
2016-12-27T07:55:33.682Z,1017.56
2016-12-27T07:56:33.702Z,1017.58
2016-12-27T07:57:33.718Z,1017.67
2016-12-27T07:58:33.736Z,1017.67
2016-12-27T07:59:33.754Z,1017.8
2016-12-27T08:00:33.773Z,1017.74
2016-12-27T08:01:33.791Z,1017.75
2016-12-27T08:02:33.808Z,1017.92
2016-12-27T08:03:33.827Z,1017.82
2016-12-27T08:04:33.845Z,1017.82
2016-12-27T08:05:33.864Z,1017.71
2016-12-27T08:06:33.884Z,1017.75
2016-12-27T08:07:33.900Z,1017.71
2016-12-27T08:08:33.919Z,1017.9
2016-12-27T08:09:33.936Z,1017.79
2016-12-27T08:11:33.973Z,1017.77
2016-12-27T08:12:33.992Z,1017.82
2016-12-27T08:13:34.009Z,1017.77
2016-12-27T08:14:34.027Z,1017.55
2016-12-27T08:15:34.046Z,1017.59
2016-12-27T08:16:34.065Z,1017.59
2016-12-27T08:17:34.082Z,1017.33
2016-12-27T08:18:34.101Z,1017.55
2016-12-27T08:19:34.119Z,1017.59
2016-12-27T08:20:34.137Z,1017.43
2016-12-27T08:21:34.156Z,1017.57
2016-12-27T08:22:34.175Z,1017.53
2016-12-27T08:23:34.193Z,1017.95
2016-12-27T08:24:34.212Z,1017.61
2016-12-27T08:25:34.229Z,1017.83
2016-12-27T08:27:34.267Z,1017.89
2016-12-27T08:28:34.285Z,1018.11
2016-12-27T08:29:34.303Z,1017.91
2016-12-27T08:30:34.322Z,1018.09
2016-12-27T08:31:34.340Z,1018.06
2016-12-27T08:32:34.359Z,1018.15
2016-12-27T08:33:34.378Z,1018.01
2016-12-27T08:34:34.396Z,1018.1
2016-12-27T08:35:34.414Z,1018.1
2016-12-27T08:36:34.433Z,1017.92
2016-12-27T08:37:34.451Z,1018.12
2016-12-27T08:38:34.471Z,1018.14
2016-12-27T08:39:34.488Z,1018.14
2016-12-27T08:40:34.507Z,1018.22
2016-12-27T08:41:34.626Z,1018.32
2016-12-27T08:43:34.563Z,1018.35
2016-12-27T08:44:34.582Z,1018.28
2016-12-27T08:45:34.600Z,1018.5
2016-12-27T08:46:34.618Z,1018.41
2016-12-27T08:47:34.637Z,1018.24
2016-12-27T08:48:34.705Z,1018.52
2016-12-27T08:49:34.674Z,1018.55
2016-12-27T08:50:34.693Z,1018.66
2016-12-27T08:51:34.711Z,1018.58
2016-12-27T08:52:34.730Z,1018.59
2016-12-27T08:53:34.747Z,1018.6
2016-12-27T08:54:34.767Z,1018.62
2016-12-27T08:55:34.786Z,1018.55
2016-12-27T08:56:34.804Z,1018.56
2016-12-27T08:57:34.822Z,1018.62
2016-12-27T08:59:34.860Z,1018.57
2016-12-27T09:00:34.879Z,1018.48
2016-12-27T09:01:34.897Z,1018.69
2016-12-27T09:02:34.916Z,1018.69
2016-12-27T09:03:34.934Z,1018.8
2016-12-27T09:04:34.953Z,1018.82
2016-12-27T09:05:34.971Z,1018.84
2016-12-27T09:06:34.990Z,1018.88
2016-12-27T09:07:35.009Z,1018.96
2016-12-27T09:08:35.027Z,1018.93
2016-12-27T09:09:35.046Z,1018.84
2016-12-27T09:10:35.065Z,1019
2016-12-27T09:11:35.088Z,1018.9
2016-12-27T09:12:35.103Z,1018.84
2016-12-27T09:14:35.141Z,1018.88
2016-12-27T09:15:35.158Z,1018.95
2016-12-27T09:16:35.177Z,1018.77
2016-12-27T09:17:35.196Z,1018.97
2016-12-27T09:18:35.215Z,1018.98
2016-12-27T09:19:35.235Z,1018.93
2016-12-27T09:20:35.252Z,1018.85
2016-12-27T09:21:35.271Z,1018.95
2016-12-27T09:22:35.291Z,1018.92
2016-12-27T09:23:35.308Z,1018.88
2016-12-27T09:24:35.327Z,1019.11
2016-12-27T09:25:35.346Z,1019.15
2016-12-27T09:26:35.364Z,1019.09
2016-12-27T09:27:35.383Z,1019.22
2016-12-27T09:28:35.402Z,1019.36
2016-12-27T09:29:35.421Z,1019.39
2016-12-27T09:30:35.439Z,1019.49
2016-12-27T09:31:35.458Z,1019.51
2016-12-27T09:32:35.477Z,1019.44
2016-12-27T09:33:35.495Z,1019.52
2016-12-27T09:34:35.515Z,1019.68
2016-12-27T09:35:35.533Z,1019.68
2016-12-27T09:36:35.552Z,1019.48
2016-12-27T09:37:35.570Z,1019.58
2016-12-27T09:38:35.588Z,1019.78
2016-12-27T09:39:35.608Z,1019.59
2016-12-27T09:40:35.627Z,1019.63
2016-12-27T09:41:35.645Z,1019.63
2016-12-27T09:42:35.664Z,1019.66
2016-12-27T09:43:35.683Z,1019.75
2016-12-27T09:44:35.701Z,1019.7
2016-12-27T09:46:35.739Z,1019.73
2016-12-27T09:47:35.758Z,1019.85
2016-12-27T09:48:35.776Z,1019.86
2016-12-27T09:49:35.796Z,1019.84
2016-12-27T09:50:35.814Z,1019.89
2016-12-27T09:51:35.833Z,1019.79
2016-12-27T09:52:35.851Z,1019.8
2016-12-27T09:53:35.870Z,1019.86
2016-12-27T09:54:35.890Z,1019.92
2016-12-27T09:55:35.908Z,1020.05
2016-12-27T09:56:35.927Z,1019.85
2016-12-27T09:57:35.946Z,1019.89
2016-12-27T09:58:35.965Z,1019.9
2016-12-27T09:59:35.983Z,1019.96
2016-12-27T10:00:36.003Z,1019.87
2016-12-27T10:02:36.041Z,1019.96
2016-12-27T10:03:36.059Z,1020.15
2016-12-27T10:04:36.078Z,1020.08
2016-12-27T10:05:36.097Z,1020.06
2016-12-27T10:06:36.115Z,1020.23
2016-12-27T10:07:36.134Z,1020.26
2016-12-27T10:08:36.154Z,1020.17
2016-12-27T10:09:36.173Z,1020.18
2016-12-27T10:10:36.191Z,1020.29
2016-12-27T10:11:36.210Z,1020.31
2016-12-27T10:12:36.229Z,1020.29
2016-12-27T10:13:36.248Z,1020.41
2016-12-27T10:14:36.267Z,1020.48
2016-12-27T10:15:36.286Z,1020.5
2016-12-27T10:16:36.305Z,1020.6
2016-12-27T10:18:36.343Z,1020.44
2016-12-27T10:19:36.363Z,1020.34
2016-12-27T10:20:36.381Z,1020.45
2016-12-27T10:21:36.400Z,1020.36
2016-12-27T10:22:36.419Z,1020.4
2016-12-27T10:23:36.441Z,1020.11
2016-12-27T10:24:36.457Z,1020.41
2016-12-27T10:25:36.475Z,1020.37
2016-12-27T10:26:36.494Z,1020.36
2016-12-27T10:27:36.513Z,1020.34
2016-12-27T10:28:36.532Z,1020.39
2016-12-27T10:29:36.551Z,1020.34
2016-12-27T10:30:36.575Z,1020.49
2016-12-27T10:31:36.589Z,1020.48
2016-12-27T10:32:36.608Z,1020.39
2016-12-27T10:34:36.648Z,1020.45
2016-12-27T10:35:36.665Z,1020.52
2016-12-27T10:36:36.683Z,1020.6
2016-12-27T10:37:36.702Z,1020.71
2016-12-27T10:38:36.722Z,1020.68
2016-12-27T10:39:36.740Z,1020.82
2016-12-27T10:40:36.759Z,1020.8
2016-12-27T10:41:36.778Z,1020.83
2016-12-27T10:42:36.797Z,1020.64
2016-12-27T10:43:36.816Z,1020.72
2016-12-27T10:44:36.837Z,1020.72
2016-12-27T10:45:36.854Z,1020.7
2016-12-27T10:46:36.874Z,1020.71
2016-12-27T10:47:36.893Z,1020.81
2016-12-27T10:49:36.931Z,1021.09
2016-12-27T10:50:36.950Z,1020.99
2016-12-27T10:51:36.969Z,1020.7
2016-12-27T10:52:36.990Z,1020.8
2016-12-27T10:53:37.008Z,1020.77
2016-12-27T10:54:37.026Z,1020.7
2016-12-27T10:55:37.045Z,1020.72
2016-12-27T10:56:37.066Z,1020.72
2016-12-27T10:57:37.083Z,1020.84
2016-12-27T10:58:37.102Z,1020.94
2016-12-27T10:59:37.121Z,1020.96
2016-12-27T11:00:37.141Z,1020.91
2016-12-27T11:01:37.159Z,1021.15
2016-12-27T11:02:37.178Z,1020.88
2016-12-27T11:03:37.197Z,1020.86
2016-12-27T11:04:37.217Z,1021.05
2016-12-27T11:05:37.235Z,1020.97
2016-12-27T11:06:37.254Z,1020.99
2016-12-27T11:07:37.273Z,1020.89
2016-12-27T11:08:37.291Z,1020.87
2016-12-27T11:09:37.311Z,1020.98
2016-12-27T11:10:37.330Z,1020.97
2016-12-27T11:11:37.349Z,1020.95
2016-12-27T11:12:37.368Z,1021.12
2016-12-27T11:13:37.387Z,1021.16
2016-12-27T11:14:37.410Z,1021.05
2016-12-27T11:15:37.425Z,1021.34
2016-12-27T11:16:37.444Z,1021.25
2016-12-27T11:17:37.463Z,1021.11
2016-12-27T11:18:37.482Z,1021.22
2016-12-27T11:19:37.500Z,1021.3
2016-12-27T11:21:37.539Z,1021.24
2016-12-27T11:22:37.558Z,1021.28
2016-12-27T11:23:37.577Z,1021.07
2016-12-27T11:24:37.599Z,1021.44
2016-12-27T11:25:37.615Z,1021.3
2016-12-27T11:26:37.635Z,1021.53
2016-12-27T11:27:37.653Z,1021.53
2016-12-27T11:28:37.672Z,1021.61
2016-12-27T11:29:37.692Z,1021.53
2016-12-27T11:30:37.710Z,1021.47
2016-12-27T11:31:37.729Z,1021.57
2016-12-27T11:32:37.749Z,1021.44
2016-12-27T11:33:37.768Z,1021.51
2016-12-27T11:34:37.787Z,1021.53
2016-12-27T11:35:37.806Z,1021.57
2016-12-27T11:37:37.845Z,1021.7
2016-12-27T11:38:37.863Z,1021.7
2016-12-27T11:39:37.883Z,1021.82
2016-12-27T11:40:37.903Z,1021.72
2016-12-27T11:41:37.921Z,1021.71
2016-12-27T11:42:37.941Z,1021.63
2016-12-27T11:43:37.960Z,1021.7
2016-12-27T11:44:37.980Z,1021.66
2016-12-27T11:45:37.998Z,1021.66
2016-12-27T11:46:38.018Z,1021.64
2016-12-27T11:47:38.037Z,1021.77
2016-12-27T11:48:38.057Z,1021.69
2016-12-27T11:49:38.075Z,1021.83
2016-12-27T11:50:38.095Z,1021.9
2016-12-27T11:51:38.115Z,1021.96
2016-12-27T11:53:38.153Z,1021.96
2016-12-27T11:54:38.173Z,1022.02
2016-12-27T11:55:38.192Z,1022.08
2016-12-27T11:56:38.211Z,1022.07
2016-12-27T11:57:38.231Z,1022.06
2016-12-27T11:58:38.251Z,1022.1
2016-12-27T11:59:38.270Z,1022.1
2016-12-27T12:00:38.289Z,1021.94
2016-12-27T12:01:38.308Z,1022.03
2016-12-27T12:02:38.328Z,1022.08
2016-12-27T12:03:38.347Z,1022.24
2016-12-27T12:04:38.367Z,1022.25
2016-12-27T12:05:38.387Z,1022.18
2016-12-27T12:06:38.406Z,1022.22
2016-12-27T12:07:38.425Z,1022.27
2016-12-27T12:09:38.464Z,1022.29
2016-12-27T12:10:38.485Z,1022.37
2016-12-27T12:11:38.504Z,1022.33
2016-12-27T12:12:38.524Z,1022.23
2016-12-27T12:13:38.544Z,1022.07
2016-12-27T12:14:38.563Z,1022.26
2016-12-27T12:15:38.583Z,1022.19
2016-12-27T12:16:38.603Z,1022.15
2016-12-27T12:17:38.629Z,1022.38
2016-12-27T12:18:38.642Z,1022.28
2016-12-27T12:19:38.662Z,1022.27
2016-12-27T12:20:38.682Z,1022.33
2016-12-27T12:21:38.702Z,1022.26
2016-12-27T12:22:38.721Z,1022.35
2016-12-27T12:24:38.762Z,1022.3
2016-12-27T12:25:38.781Z,1022.3
2016-12-27T12:26:38.803Z,1022.34
2016-12-27T12:27:38.821Z,1022.42
2016-12-27T12:28:38.891Z,1022.46
2016-12-27T12:29:38.860Z,1022.49
2016-12-27T12:30:38.883Z,1022.5
2016-12-27T12:31:38.900Z,1022.6
2016-12-27T12:32:38.919Z,1022.5
2016-12-27T12:33:38.939Z,1022.63
2016-12-27T12:34:38.958Z,1022.57
2016-12-27T12:35:38.979Z,1022.58
2016-12-27T12:36:38.998Z,1022.62
2016-12-27T12:37:39.018Z,1022.58
2016-12-27T12:38:39.038Z,1022.71
2016-12-27T12:39:39.058Z,1022.79
2016-12-27T12:40:39.077Z,1022.78
2016-12-27T12:41:39.097Z,1022.74
2016-12-27T12:42:39.117Z,1022.89
2016-12-27T12:43:39.136Z,1022.7
2016-12-27T12:44:39.156Z,1022.92
2016-12-27T12:45:39.176Z,1022.96
2016-12-27T12:46:39.196Z,1023
2016-12-27T12:47:39.215Z,1022.86
2016-12-27T12:48:39.237Z,1022.96